Audubon, IA

9:20 AM CDT on September 19, 2014 (GMT -0500)
Herbers Seed | Change Station
CLOSE
Current Station
Personal Weather Station
Location: Audubon, IA
Elevation: 1385 ft
Nearby Weather Stations

Elev 1385 ft 41.73 °N, 94.94 °W | Updated 8 minutes ago

Scattered Clouds
Scattered Clouds
62.5 °F
Feels Like 62.5 °F
N
0.0
Wind Variable Wind from South

Today
High -- | Low -- °F
--% Chance of Precip.
Yesterday
High -- | Low -- °F
Precip. -- in
7:04 AM 7:22 PM
Waning Crescent, 19% visible
Pressure 29.95 in
Visibility 7.0 miles
Clouds Scattered Clouds 800 ft
Dew Point 61 °F
Humidity 94%
Rainfall 0.00 in
Snow Depth Not available.
UV 2 out of 12
Pollen 6.70 out of 12
Air Quality Not available.
Flu Activity Not available.
METAR KADU 191415Z AUTO 18010G17KT 7SM SCT008 18/14 A2995 RMK AO2

More Conditions Fewer Conditions

Pressure 29.95 in
Visibility 7.0 miles
Clouds Scattered Clouds 800 ft
Dew Point 61 °F
Humidity 94%
Rainfall 0.00 in
Snow Depth Not available.
UV 2 out of 12
Pollen 6.70 out of 12
Air Quality Not available.
Flu Activity Not available.
METAR KADU 191415Z AUTO 18010G17KT 7SM SCT008 18/14 A2995 RMK AO2

More Conditions Fewer Conditions

10-Day Weather Forecast

Almanac

Astronomy

Sep. 19, 2014 Rise Set
Actual Time 7:04 AM CDT 7:22 PM CDT
Civil Twilight 6:36 AM CDT 7:49 PM CDT
Nautical Twilight 6:03 AM CDT 8:22 PM CDT
Astronomical Twilight 5:30 AM CDT 8:55 PM CDT
Moon 2:47 AM CDT 4:53 PM CDT
Length of Visible Light 13h 13m
Length of Day
12h 18m
Tomorrow will be 2m 47s shorter.
Waning Crescent, 19% of the Moon is Illuminated
Today
Waning Crescent
Sep 24
New
Oct 1
First Quarter
Oct 8
Full
Oct 15
Last Quarter

Today's Extremes

State Highs State Lows

Community

WunderPhotos

Upload Photos

1,754,624 photos uploaded!

WunderBlogs® & News

Nearby

Snow Depth

Station Depth Elevation
No new snow has been reported.

Earthquake Activity

City Distance Mag. Time & Date
No recent earthquake activity has been reported nearby.
Minimum magnitude displayed is 2.5.

Coastal Water Temperatures

Place Temperature
No Stations Reporting

Nearby Weather Stations